sensor_id;sensor_type;location;lat;lon;timestamp;temperature;humidity
66057;DHT22;52842;52.666;5.202;2023-02-28T00:01:11;17.40;54.00
66057;DHT22;52842;52.666;5.202;2023-02-28T00:03:38;17.70;53.50
66057;DHT22;52842;52.666;5.202;2023-02-28T00:06:05;18.00;52.80
66057;DHT22;52842;52.666;5.202;2023-02-28T00:08:32;18.40;51.80
66057;DHT22;52842;52.666;5.202;2023-02-28T00:11:00;18.80;51.00
66057;DHT22;52842;52.666;5.202;2023-02-28T00:13:29;19.10;50.20
66057;DHT22;52842;52.666;5.202;2023-02-28T00:15:58;19.30;49.60
66057;DHT22;52842;52.666;5.202;2023-02-28T00:18:25;19.50;49.00
66057;DHT22;52842;52.666;5.202;2023-02-28T00:20:52;19.70;48.70
66057;DHT22;52842;52.666;5.202;2023-02-28T00:23:19;19.90;48.20
66057;DHT22;52842;52.666;5.202;2023-02-28T00:25:45;20.00;47.80
66057;DHT22;52842;52.666;5.202;2023-02-28T00:28:12;20.10;47.40
66057;DHT22;52842;52.666;5.202;2023-02-28T00:30:40;20.20;47.20
66057;DHT22;52842;52.666;5.202;2023-02-28T00:33:07;20.30;47.10
66057;DHT22;52842;52.666;5.202;2023-02-28T00:35:33;20.40;46.90
66057;DHT22;52842;52.666;5.202;2023-02-28T00:38:00;20.30;46.70
66057;DHT22;52842;52.666;5.202;2023-02-28T00:40:27;20.40;46.60
66057;DHT22;52842;52.666;5.202;2023-02-28T00:42:54;20.40;46.50
66057;DHT22;52842;52.666;5.202;2023-02-28T00:45:21;20.40;46.40
66057;DHT22;52842;52.666;5.202;2023-02-28T00:47:49;20.50;46.50
66057;DHT22;52842;52.666;5.202;2023-02-28T00:50:16;20.50;46.30
66057;DHT22;52842;52.666;5.202;2023-02-28T00:52:43;20.50;46.40
66057;DHT22;52842;52.666;5.202;2023-02-28T00:55:09;20.50;46.30
66057;DHT22;52842;52.666;5.202;2023-02-28T00:57:36;20.50;46.20
66057;DHT22;52842;52.666;5.202;2023-02-28T01:00:03;20.50;46.30
66057;DHT22;52842;52.666;5.202;2023-02-28T01:02:30;20.50;46.30
66057;DHT22;52842;52.666;5.202;2023-02-28T01:04:58;20.50;46.10
66057;DHT22;52842;52.666;5.202;2023-02-28T01:07:25;20.40;46.10
66057;DHT22;52842;52.666;5.202;2023-02-28T01:09:52;20.40;46.30
66057;DHT22;52842;52.666;5.202;2023-02-28T01:12:18;20.10;46.50
66057;DHT22;52842;52.666;5.202;2023-02-28T01:14:45;19.90;47.10
66057;DHT22;52842;52.666;5.202;2023-02-28T01:17:12;19.60;47.50
66057;DHT22;52842;52.666;5.202;2023-02-28T01:19:38;19.30;48.00
66057;DHT22;52842;52.666;5.202;2023-02-28T01:22:07;19.10;48.50
66057;DHT22;52842;52.666;5.202;2023-02-28T01:24:33;18.90;49.10
66057;DHT22;52842;52.666;5.202;2023-02-28T01:27:00;18.70;49.60
66057;DHT22;52842;52.666;5.202;2023-02-28T01:29:27;18.60;50.00
66057;DHT22;52842;52.666;5.202;2023-02-28T01:31:53;18.40;50.30
66057;DHT22;52842;52.666;5.202;2023-02-28T01:34:20;18.30;50.60
66057;DHT22;52842;52.666;5.202;2023-02-28T01:36:46;18.20;50.90
66057;DHT22;52842;52.666;5.202;2023-02-28T01:39:15;18.10;51.10
66057;DHT22;52842;52.666;5.202;2023-02-28T01:41:41;17.90;51.40
66057;DHT22;52842;52.666;5.202;2023-02-28T01:46:50;17.80;51.80
66057;DHT22;52842;52.666;5.202;2023-02-28T01:49:16;17.70;52.10
66057;DHT22;52842;52.666;5.202;2023-02-28T01:51:45;17.60;52.30
66057;DHT22;52842;52.666;5.202;2023-02-28T01:54:18;17.50;52.40
66057;DHT22;52842;52.666;5.202;2023-02-28T01:56:47;17.50;52.60
66057;DHT22;52842;52.666;5.202;2023-02-28T01:59:19;17.40;52.80
66057;DHT22;52842;52.666;5.202;2023-02-28T02:01:47;17.30;52.90
66057;DHT22;52842;52.666;5.202;2023-02-28T02:04:14;17.30;53.10
66057;DHT22;52842;52.666;5.202;2023-02-28T02:06:42;17.20;53.20
66057;DHT22;52842;52.666;5.202;2023-02-28T02:09:09;17.20;53.30
66057;DHT22;52842;52.666;5.202;2023-02-28T02:11:37;17.20;53.70
66057;DHT22;52842;52.666;5.202;2023-02-28T02:14:10;17.20;53.00
66057;DHT22;52842;52.666;5.202;2023-02-28T02:16:42;17.20;53.00
66057;DHT22;52842;52.666;5.202;2023-02-28T02:19:15;17.20;53.00
66057;DHT22;52842;52.666;5.202;2023-02-28T02:21:54;17.30;53.00
66057;DHT22;52842;52.666;5.202;2023-02-28T02:27:19;17.90;52.00
66057;DHT22;52842;52.666;5.202;2023-02-28T02:35:14;18.80;49.90
66057;DHT22;52842;52.666;5.202;2023-02-28T02:37:43;19.00;49.30
66057;DHT22;52842;52.666;5.202;2023-02-28T02:40:13;19.20;48.80
66057;DHT22;52842;52.666;5.202;2023-02-28T02:42:42;19.40;48.30
66057;DHT22;52842;52.666;5.202;2023-02-28T02:45:11;19.60;47.90
66057;DHT22;52842;52.666;5.202;2023-02-28T02:47:40;19.70;47.60
66057;DHT22;52842;52.666;5.202;2023-02-28T02:50:08;19.80;47.30
66057;DHT22;52842;52.666;5.202;2023-02-28T02:52:40;19.90;47.70
66057;DHT22;52842;52.666;5.202;2023-02-28T02:55:09;20.00;46.80
66057;DHT22;52842;52.666;5.202;2023-02-28T02:57:38;20.10;46.70
66057;DHT22;52842;52.666;5.202;2023-02-28T03:00:07;20.10;46.60
66057;DHT22;52842;52.666;5.202;2023-02-28T03:02:36;20.20;46.60
66057;DHT22;52842;52.666;5.202;2023-02-28T03:05:04;20.20;46.40
66057;DHT22;52842;52.666;5.202;2023-02-28T03:07:32;20.30;46.20
66057;DHT22;52842;52.666;5.202;2023-02-28T03:10:01;20.30;46.30
66057;DHT22;52842;52.666;5.202;2023-02-28T03:12:31;20.30;46.20
66057;DHT22;52842;52.666;5.202;2023-02-28T03:15:01;20.40;46.20
66057;DHT22;52842;52.666;5.202;2023-02-28T03:17:42;20.30;46.10
66057;DHT22;52842;52.666;5.202;2023-02-28T03:20:15;20.40;46.00
66057;DHT22;52842;52.666;5.202;2023-02-28T03:22:45;20.40;45.90
66057;DHT22;52842;52.666;5.202;2023-02-28T03:25:18;20.50;45.90
66057;DHT22;52842;52.666;5.202;2023-02-28T03:27:48;20.50;45.70
66057;DHT22;52842;52.666;5.202;2023-02-28T03:30:18;20.50;45.70
66057;DHT22;52842;52.666;5.202;2023-02-28T03:32:50;20.50;45.60
66057;DHT22;52842;52.666;5.202;2023-02-28T03:35:20;20.50;46.20
66057;DHT22;52842;52.666;5.202;2023-02-28T03:37:48;20.50;45.60
66057;DHT22;52842;52.666;5.202;2023-02-28T03:40:19;20.60;45.70
66057;DHT22;52842;52.666;5.202;2023-02-28T03:42:47;20.60;45.60
66057;DHT22;52842;52.666;5.202;2023-02-28T03:45:15;20.60;45.50
66057;DHT22;52842;52.666;5.202;2023-02-28T03:47:45;20.60;45.50
66057;DHT22;52842;52.666;5.202;2023-02-28T03:50:14;20.60;45.50
66057;DHT22;52842;52.666;5.202;2023-02-28T03:52:42;20.60;45.50
66057;DHT22;52842;52.666;5.202;2023-02-28T03:55:12;20.60;45.30
66057;DHT22;52842;52.666;5.202;2023-02-28T03:57:41;20.60;45.40
66057;DHT22;52842;52.666;5.202;2023-02-28T04:00:10;20.60;45.30
66057;DHT22;52842;52.666;5.202;2023-02-28T04:02:38;20.60;45.30
66057;DHT22;52842;52.666;5.202;2023-02-28T04:05:06;20.60;45.30
66057;DHT22;52842;52.666;5.202;2023-02-28T04:07:32;20.50;45.30
66057;DHT22;52842;52.666;5.202;2023-02-28T04:09:59;20.40;45.40
66057;DHT22;52842;52.666;5.202;2023-02-28T04:12:26;20.30;45.30
66057;DHT22;52842;52.666;5.202;2023-02-28T04:14:54;20.00;45.40
66057;DHT22;52842;52.666;5.202;2023-02-28T04:17:21;19.70;46.10
66057;DHT22;52842;52.666;5.202;2023-02-28T04:19:47;19.40;47.20
66057;DHT22;52842;52.666;5.202;2023-02-28T04:22:15;19.10;47.10
66057;DHT22;52842;52.666;5.202;2023-02-28T04:24:43;18.90;47.70
66057;DHT22;52842;52.666;5.202;2023-02-28T04:27:09;18.70;48.30
66057;DHT22;52842;52.666;5.202;2023-02-28T04:29:36;18.50;48.80
66057;DHT22;52842;52.666;5.202;2023-02-28T04:32:04;18.40;49.30
66057;DHT22;52842;52.666;5.202;2023-02-28T04:34:31;18.30;49.70
66057;DHT22;52842;52.666;5.202;2023-02-28T04:36:58;18.10;50.00
66057;DHT22;52842;52.666;5.202;2023-02-28T04:39:25;18.00;50.20
66057;DHT22;52842;52.666;5.202;2023-02-28T04:41:52;17.90;50.40
66057;DHT22;52842;52.666;5.202;2023-02-28T04:44:19;17.80;50.70
66057;DHT22;52842;52.666;5.202;2023-02-28T04:46:47;17.70;50.90
66057;DHT22;52842;52.666;5.202;2023-02-28T04:49:15;17.60;51.20
66057;DHT22;52842;52.666;5.202;2023-02-28T04:51:42;17.60;51.40
66057;DHT22;52842;52.666;5.202;2023-02-28T04:54:08;17.50;51.60
66057;DHT22;52842;52.666;5.202;2023-02-28T04:56:35;17.50;51.50
66057;DHT22;52842;52.666;5.202;2023-02-28T04:59:02;17.70;51.40
66057;DHT22;52842;52.666;5.202;2023-02-28T05:01:30;17.80;51.20
66057;DHT22;52842;52.666;5.202;2023-02-28T05:03:59;18.00;50.80
66057;DHT22;52842;52.666;5.202;2023-02-28T05:06:28;18.20;50.40
66057;DHT22;52842;52.666;5.202;2023-02-28T05:08:55;18.40;50.10
66057;DHT22;52842;52.666;5.202;2023-02-28T05:11:23;18.50;49.70
66057;DHT22;52842;52.666;5.202;2023-02-28T05:13:50;18.70;49.40
66057;DHT22;52842;52.666;5.202;2023-02-28T05:16:17;18.90;49.10
66057;DHT22;52842;52.666;5.202;2023-02-28T05:18:44;19.00;48.70
66057;DHT22;52842;52.666;5.202;2023-02-28T05:21:23;19.20;48.30
66057;DHT22;52842;52.666;5.202;2023-02-28T05:23:51;19.30;48.10
66057;DHT22;52842;52.666;5.202;2023-02-28T05:26:18;19.40;47.80
66057;DHT22;52842;52.666;5.202;2023-02-28T05:28:45;19.60;47.50
66057;DHT22;52842;52.666;5.202;2023-02-28T05:31:12;19.70;47.20
66057;DHT22;52842;52.666;5.202;2023-02-28T05:33:39;19.80;47.10
66057;DHT22;52842;52.666;5.202;2023-02-28T05:36:06;19.90;46.90
66057;DHT22;52842;52.666;5.202;2023-02-28T05:38:33;20.00;46.70
66057;DHT22;52842;52.666;5.202;2023-02-28T05:41:04;20.00;46.50
66057;DHT22;52842;52.666;5.202;2023-02-28T05:43:30;20.10;46.20
66057;DHT22;52842;52.666;5.202;2023-02-28T05:45:57;20.20;46.10
66057;DHT22;52842;52.666;5.202;2023-02-28T05:48:24;20.30;46.00
66057;DHT22;52842;52.666;5.202;2023-02-28T05:50:51;20.30;45.70
66057;DHT22;52842;52.666;5.202;2023-02-28T05:53:17;20.50;45.60
66057;DHT22;52842;52.666;5.202;2023-02-28T05:55:44;20.50;45.40
66057;DHT22;52842;52.666;5.202;2023-02-28T05:58:12;20.60;45.30
66057;DHT22;52842;52.666;5.202;2023-02-28T06:00:39;20.60;45.10
66057;DHT22;52842;52.666;5.202;2023-02-28T06:03:05;20.70;45.00
66057;DHT22;52842;52.666;5.202;2023-02-28T06:05:32;20.80;44.90
66057;DHT22;52842;52.666;5.202;2023-02-28T06:07:59;20.80;44.70
66057;DHT22;52842;52.666;5.202;2023-02-28T06:10:26;20.90;44.70
66057;DHT22;52842;52.666;5.202;2023-02-28T06:12:54;20.90;44.60
66057;DHT22;52842;52.666;5.202;2023-02-28T06:15:22;20.90;44.60
66057;DHT22;52842;52.666;5.202;2023-02-28T06:17:49;21.00;44.60
66057;DHT22;52842;52.666;5.202;2023-02-28T06:20:16;21.00;44.40
66057;DHT22;52842;52.666;5.202;2023-02-28T06:22:42;21.00;44.40
66057;DHT22;52842;52.666;5.202;2023-02-28T06:25:09;21.00;44.40
66057;DHT22;52842;52.666;5.202;2023-02-28T06:27:36;21.00;44.30
66057;DHT22;52842;52.666;5.202;2023-02-28T06:30:03;21.10;44.30
66057;DHT22;52842;52.666;5.202;2023-02-28T06:32:31;21.10;44.20
66057;DHT22;52842;52.666;5.202;2023-02-28T06:34:58;21.10;44.10
66057;DHT22;52842;52.666;5.202;2023-02-28T06:37:25;21.10;44.20
66057;DHT22;52842;52.666;5.202;2023-02-28T06:39:53;21.10;44.10
66057;DHT22;52842;52.666;5.202;2023-02-28T06:42:21;21.10;44.10
66057;DHT22;52842;52.666;5.202;2023-02-28T06:44:50;21.10;44.20
66057;DHT22;52842;52.666;5.202;2023-02-28T06:47:16;21.10;44.10
66057;DHT22;52842;52.666;5.202;2023-02-28T06:49:44;21.10;44.00
66057;DHT22;52842;52.666;5.202;2023-02-28T06:52:11;21.10;44.00
66057;DHT22;52842;52.666;5.202;2023-02-28T06:54:38;21.20;44.00
66057;DHT22;52842;52.666;5.202;2023-02-28T06:57:04;21.20;44.00
66057;DHT22;52842;52.666;5.202;2023-02-28T06:59:31;21.20;43.90
66057;DHT22;52842;52.666;5.202;2023-02-28T07:01:58;21.20;43.90
66057;DHT22;52842;52.666;5.202;2023-02-28T07:04:25;21.20;43.90
66057;DHT22;52842;52.666;5.202;2023-02-28T07:06:54;21.20;43.90
66057;DHT22;52842;52.666;5.202;2023-02-28T07:09:21;21.20;43.80
66057;DHT22;52842;52.666;5.202;2023-02-28T07:11:48;21.20;43.90
66057;DHT22;52842;52.666;5.202;2023-02-28T07:14:14;21.20;44.10
66057;DHT22;52842;52.666;5.202;2023-02-28T07:16:41;21.30;44.30
66057;DHT22;52842;52.666;5.202;2023-02-28T07:19:09;21.30;44.50
66057;DHT22;52842;52.666;5.202;2023-02-28T07:21:35;21.30;44.70
66057;DHT22;52842;52.666;5.202;2023-02-28T07:24:04;21.30;44.70
66057;DHT22;52842;52.666;5.202;2023-02-28T07:26:30;21.40;44.90
66057;DHT22;52842;52.666;5.202;2023-02-28T07:28:59;21.40;45.00
66057;DHT22;52842;52.666;5.202;2023-02-28T07:31:26;21.40;45.20
66057;DHT22;52842;52.666;5.202;2023-02-28T07:33:53;21.40;45.20
66057;DHT22;52842;52.666;5.202;2023-02-28T07:36:19;21.40;45.20
66057;DHT22;52842;52.666;5.202;2023-02-28T07:38:47;21.50;45.30
66057;DHT22;52842;52.666;5.202;2023-02-28T07:41:16;21.50;45.30
66057;DHT22;52842;52.666;5.202;2023-02-28T07:43:43;21.50;45.40
66057;DHT22;52842;52.666;5.202;2023-02-28T07:46:11;21.50;45.60
66057;DHT22;52842;52.666;5.202;2023-02-28T07:48:40;21.30;45.80
66057;DHT22;52842;52.666;5.202;2023-02-28T07:51:07;21.10;46.20
66057;DHT22;52842;52.666;5.202;2023-02-28T07:53:34;20.80;46.80
66057;DHT22;52842;52.666;5.202;2023-02-28T07:56:01;20.60;47.40
66057;DHT22;52842;52.666;5.202;2023-02-28T07:58:30;20.40;48.00
66057;DHT22;52842;52.666;5.202;2023-02-28T08:00:57;20.30;48.40
66057;DHT22;52842;52.666;5.202;2023-02-28T08:03:23;20.10;48.80
66057;DHT22;52842;52.666;5.202;2023-02-28T08:05:50;20.00;49.10
66057;DHT22;52842;52.666;5.202;2023-02-28T08:08:18;19.90;49.50
66057;DHT22;52842;52.666;5.202;2023-02-28T08:10:45;19.80;49.80
66057;DHT22;52842;52.666;5.202;2023-02-28T08:13:11;19.70;50.00
66057;DHT22;52842;52.666;5.202;2023-02-28T08:15:40;19.70;50.30
66057;DHT22;52842;52.666;5.202;2023-02-28T08:18:06;19.70;50.40
66057;DHT22;52842;52.666;5.202;2023-02-28T08:20:33;19.60;50.50
66057;DHT22;52842;52.666;5.202;2023-02-28T08:23:00;19.60;50.70
66057;DHT22;52842;52.666;5.202;2023-02-28T08:25:26;19.60;50.70
66057;DHT22;52842;52.666;5.202;2023-02-28T08:27:53;19.60;50.80
66057;DHT22;52842;52.666;5.202;2023-02-28T08:30:20;19.50;50.90
66057;DHT22;52842;52.666;5.202;2023-02-28T08:32:48;19.50;51.10
66057;DHT22;52842;52.666;5.202;2023-02-28T08:35:14;19.50;51.10
66057;DHT22;52842;52.666;5.202;2023-02-28T08:37:41;19.50;51.10
66057;DHT22;52842;52.666;5.202;2023-02-28T08:40:08;19.50;51.20
66057;DHT22;52842;52.666;5.202;2023-02-28T08:42:35;19.50;51.20
66057;DHT22;52842;52.666;5.202;2023-02-28T08:45:02;19.50;51.20
66057;DHT22;52842;52.666;5.202;2023-02-28T08:47:29;19.50;51.30
66057;DHT22;52842;52.666;5.202;2023-02-28T08:49:57;19.40;51.30
66057;DHT22;52842;52.666;5.202;2023-02-28T08:52:23;19.40;51.40
66057;DHT22;52842;52.666;5.202;2023-02-28T08:54:50;19.40;51.50
66057;DHT22;52842;52.666;5.202;2023-02-28T08:57:17;19.40;51.50
66057;DHT22;52842;52.666;5.202;2023-02-28T08:59:43;19.40;51.50
66057;DHT22;52842;52.666;5.202;2023-02-28T09:02:11;19.40;51.60
66057;DHT22;52842;52.666;5.202;2023-02-28T09:04:38;19.40;51.60
66057;DHT22;52842;52.666;5.202;2023-02-28T09:07:06;19.40;51.50
66057;DHT22;52842;52.666;5.202;2023-02-28T09:09:33;19.40;51.60
66057;DHT22;52842;52.666;5.202;2023-02-28T09:11:59;19.40;51.50
66057;DHT22;52842;52.666;5.202;2023-02-28T09:14:26;19.40;51.60
66057;DHT22;52842;52.666;5.202;2023-02-28T09:16:53;19.40;51.60
66057;DHT22;52842;52.666;5.202;2023-02-28T09:19:20;19.40;51.50
66057;DHT22;52842;52.666;5.202;2023-02-28T09:21:47;19.50;51.70
66057;DHT22;52842;52.666;5.202;2023-02-28T09:24:15;19.50;51.70
66057;DHT22;52842;52.666;5.202;2023-02-28T09:26:43;19.50;51.80
66057;DHT22;52842;52.666;5.202;2023-02-28T09:29:10;19.50;51.70
66057;DHT22;52842;52.666;5.202;2023-02-28T09:31:37;19.50;51.70
66057;DHT22;52842;52.666;5.202;2023-02-28T09:34:05;19.50;51.70
66057;DHT22;52842;52.666;5.202;2023-02-28T09:36:32;19.50;51.70
66057;DHT22;52842;52.666;5.202;2023-02-28T09:39:00;19.50;51.80
66057;DHT22;52842;52.666;5.202;2023-02-28T09:41:29;19.50;51.80
66057;DHT22;52842;52.666;5.202;2023-02-28T09:44:01;19.50;52.40
66057;DHT22;52842;52.666;5.202;2023-02-28T09:46:32;19.60;51.80
66057;DHT22;52842;52.666;5.202;2023-02-28T09:49:00;19.60;51.80
66057;DHT22;52842;52.666;5.202;2023-02-28T09:51:30;19.60;51.70
66057;DHT22;52842;52.666;5.202;2023-02-28T09:53:59;19.60;51.70
66057;DHT22;52842;52.666;5.202;2023-02-28T09:56:29;19.60;51.70
66057;DHT22;52842;52.666;5.202;2023-02-28T09:58:58;19.50;51.50
66057;DHT22;52842;52.666;5.202;2023-02-28T10:01:27;19.40;51.60
66057;DHT22;52842;52.666;5.202;2023-02-28T10:03:59;19.30;51.90
66057;DHT22;52842;52.666;5.202;2023-02-28T10:06:28;19.20;52.10
66057;DHT22;52842;52.666;5.202;2023-02-28T10:08:56;19.10;52.30
66057;DHT22;52842;52.666;5.202;2023-02-28T10:11:24;19.00;52.50
66057;DHT22;52842;52.666;5.202;2023-02-28T10:13:54;18.90;52.60
66057;DHT22;52842;52.666;5.202;2023-02-28T10:16:28;18.80;52.70
66057;DHT22;52842;52.666;5.202;2023-02-28T10:18:56;18.80;52.80
66057;DHT22;52842;52.666;5.202;2023-02-28T10:21:25;18.70;52.90
66057;DHT22;52842;52.666;5.202;2023-02-28T10:23:53;18.70;53.00
66057;DHT22;52842;52.666;5.202;2023-02-28T10:26:22;18.70;53.10
66057;DHT22;52842;52.666;5.202;2023-02-28T10:28:50;18.60;53.20
66057;DHT22;52842;52.666;5.202;2023-02-28T10:31:19;18.60;53.10
66057;DHT22;52842;52.666;5.202;2023-02-28T10:33:47;18.50;53.10
66057;DHT22;52842;52.666;5.202;2023-02-28T10:36:14;18.50;53.00
66057;DHT22;52842;52.666;5.202;2023-02-28T10:38:42;18.50;53.20
66057;DHT22;52842;52.666;5.202;2023-02-28T10:41:09;18.50;52.80
66057;DHT22;52842;52.666;5.202;2023-02-28T10:43:37;18.40;52.60
66057;DHT22;52842;52.666;5.202;2023-02-28T10:46:05;18.40;52.90
66057;DHT22;52842;52.666;5.202;2023-02-28T10:48:38;18.40;52.70
66057;DHT22;52842;52.666;5.202;2023-02-28T10:51:08;18.30;53.20
66057;DHT22;52842;52.666;5.202;2023-02-28T10:53:44;18.30;53.20
66057;DHT22;52842;52.666;5.202;2023-02-28T10:56:14;18.20;53.20
66057;DHT22;52842;52.666;5.202;2023-02-28T10:58:45;18.20;53.20
66057;DHT22;52842;52.666;5.202;2023-02-28T11:01:14;18.20;53.40
66057;DHT22;52842;52.666;5.202;2023-02-28T11:03:42;18.10;53.50
66057;DHT22;52842;52.666;5.202;2023-02-28T11:06:12;18.10;53.80
66057;DHT22;52842;52.666;5.202;2023-02-28T11:08:44;18.10;53.70
66057;DHT22;52842;52.666;5.202;2023-02-28T11:11:11;18.00;53.90
66057;DHT22;52842;52.666;5.202;2023-02-28T11:13:38;18.00;54.00
66057;DHT22;52842;52.666;5.202;2023-02-28T11:16:05;17.90;54.00
66057;DHT22;52842;52.666;5.202;2023-02-28T11:18:34;17.90;54.20
66057;DHT22;52842;52.666;5.202;2023-02-28T11:21:04;17.90;54.30
66057;DHT22;52842;52.666;5.202;2023-02-28T11:23:31;17.80;54.40
66057;DHT22;52842;52.666;5.202;2023-02-28T11:26:00;17.80;54.50
66057;DHT22;52842;52.666;5.202;2023-02-28T11:28:27;17.80;54.60
66057;DHT22;52842;52.666;5.202;2023-02-28T11:31:02;17.80;55.20
66057;DHT22;52842;52.666;5.202;2023-02-28T11:33:29;17.70;54.80
66057;DHT22;52842;52.666;5.202;2023-02-28T11:35:57;17.70;54.90
66057;DHT22;52842;52.666;5.202;2023-02-28T11:38:27;17.70;54.80
66057;DHT22;52842;52.666;5.202;2023-02-28T11:41:02;17.60;54.80
66057;DHT22;52842;52.666;5.202;2023-02-28T11:43:35;17.60;55.00
66057;DHT22;52842;52.666;5.202;2023-02-28T11:46:09;17.60;55.10
66057;DHT22;52842;52.666;5.202;2023-02-28T11:48:41;17.60;55.20
66057;DHT22;52842;52.666;5.202;2023-02-28T11:51:11;17.50;55.20
66057;DHT22;52842;52.666;5.202;2023-02-28T11:53:50;17.50;55.40
66057;DHT22;52842;52.666;5.202;2023-02-28T11:56:20;17.50;55.40
66057;DHT22;52842;52.666;5.202;2023-02-28T11:58:51;17.50;55.10
66057;DHT22;52842;52.666;5.202;2023-02-28T12:01:21;17.50;55.10
66057;DHT22;52842;52.666;5.202;2023-02-28T12:03:55;17.60;55.20
66057;DHT22;52842;52.666;5.202;2023-02-28T12:06:25;17.80;55.10
66057;DHT22;52842;52.666;5.202;2023-02-28T12:09:00;18.10;54.90
66057;DHT22;52842;52.666;5.202;2023-02-28T12:11:34;18.40;54.10
66057;DHT22;52842;52.666;5.202;2023-02-28T12:14:07;18.70;53.50
66057;DHT22;52842;52.666;5.202;2023-02-28T12:16:43;19.00;53.00
66057;DHT22;52842;52.666;5.202;2023-02-28T12:19:14;19.30;52.40
66057;DHT22;52842;52.666;5.202;2023-02-28T12:21:46;19.60;51.80
66057;DHT22;52842;52.666;5.202;2023-02-28T12:24:27;19.90;51.20
66057;DHT22;52842;52.666;5.202;2023-02-28T12:26:57;20.10;50.70
66057;DHT22;52842;52.666;5.202;2023-02-28T12:29:25;20.30;50.10
66057;DHT22;52842;52.666;5.202;2023-02-28T12:31:55;20.50;49.70
66057;DHT22;52842;52.666;5.202;2023-02-28T12:34:25;20.60;49.30
66057;DHT22;52842;52.666;5.202;2023-02-28T12:36:53;20.70;49.00
66057;DHT22;52842;52.666;5.202;2023-02-28T12:39:23;20.60;49.20
66057;DHT22;52842;52.666;5.202;2023-02-28T12:41:53;20.30;49.70
66057;DHT22;52842;52.666;5.202;2023-02-28T12:44:21;20.00;50.20
66057;DHT22;52842;52.666;5.202;2023-02-28T12:46:50;19.70;50.50
66057;DHT22;52842;52.666;5.202;2023-02-28T12:49:17;19.50;51.20
66057;DHT22;52842;52.666;5.202;2023-02-28T12:51:45;19.30;51.60
66057;DHT22;52842;52.666;5.202;2023-02-28T12:54:15;19.10;52.00
66057;DHT22;52842;52.666;5.202;2023-02-28T12:56:47;18.90;52.30
66057;DHT22;52842;52.666;5.202;2023-02-28T12:59:19;18.80;52.80
66057;DHT22;52842;52.666;5.202;2023-02-28T13:04:47;18.60;53.30
66057;DHT22;52842;52.666;5.202;2023-02-28T13:07:28;18.40;53.60
66057;DHT22;52842;52.666;5.202;2023-02-28T13:09:59;18.40;54.00
66057;DHT22;52842;52.666;5.202;2023-02-28T13:12:26;18.30;54.20
66057;DHT22;52842;52.666;5.202;2023-02-28T13:15:01;18.20;54.40
66057;DHT22;52842;52.666;5.202;2023-02-28T13:17:30;18.20;54.70
66057;DHT22;52842;52.666;5.202;2023-02-28T13:19:58;18.10;54.90
66057;DHT22;52842;52.666;5.202;2023-02-28T13:27:56;18.10;54.70
66057;DHT22;52842;52.666;5.202;2023-02-28T13:33:20;18.00;55.20
66057;DHT22;52842;52.666;5.202;2023-02-28T13:35:48;17.90;55.30
66057;DHT22;52842;52.666;5.202;2023-02-28T13:38:22;17.90;55.50
66057;DHT22;52842;52.666;5.202;2023-02-28T13:40:49;17.80;55.70
66057;DHT22;52842;52.666;5.202;2023-02-28T13:43:16;17.80;55.80
66057;DHT22;52842;52.666;5.202;2023-02-28T13:48:27;17.70;56.00
66057;DHT22;52842;52.666;5.202;2023-02-28T13:50:54;17.70;56.10
66057;DHT22;52842;52.666;5.202;2023-02-28T13:53:28;17.70;56.10
66057;DHT22;52842;52.666;5.202;2023-02-28T13:55:58;17.80;55.50
66057;DHT22;52842;52.666;5.202;2023-02-28T13:58:32;18.10;55.10
66057;DHT22;52842;52.666;5.202;2023-02-28T14:01:11;18.40;54.40
66057;DHT22;52842;52.666;5.202;2023-02-28T14:03:56;18.80;53.80
66057;DHT22;52842;52.666;5.202;2023-02-28T14:06:25;19.10;53.20
66057;DHT22;52842;52.666;5.202;2023-02-28T14:08:54;19.40;52.30
66057;DHT22;52842;52.666;5.202;2023-02-28T14:11:26;19.70;51.60
66057;DHT22;52842;52.666;5.202;2023-02-28T14:13:52;20.00;51.10
66057;DHT22;52842;52.666;5.202;2023-02-28T14:16:20;20.20;50.50
66057;DHT22;52842;52.666;5.202;2023-02-28T14:18:49;20.40;50.00
66057;DHT22;52842;52.666;5.202;2023-02-28T14:21:20;20.60;49.60
66057;DHT22;52842;52.666;5.202;2023-02-28T14:26:41;20.80;49.10
66057;DHT22;52842;52.666;5.202;2023-02-28T14:29:16;20.60;49.30
66057;DHT22;52842;52.666;5.202;2023-02-28T14:31:45;20.50;49.60
66057;DHT22;52842;52.666;5.202;2023-02-28T14:34:23;20.30;49.90
66057;DHT22;52842;52.666;5.202;2023-02-28T14:36:53;20.10;50.30
66057;DHT22;52842;52.666;5.202;2023-02-28T14:39:21;19.90;50.80
66057;DHT22;52842;52.666;5.202;2023-02-28T14:41:49;19.80;51.10
66057;DHT22;52842;52.666;5.202;2023-02-28T14:44:17;19.70;51.40
66057;DHT22;52842;52.666;5.202;2023-02-28T14:46:45;19.60;51.70
66057;DHT22;52842;52.666;5.202;2023-02-28T14:49:13;19.50;52.00
66057;DHT22;52842;52.666;5.202;2023-02-28T14:51:42;19.50;52.30
66057;DHT22;52842;52.666;5.202;2023-02-28T14:54:13;19.40;52.70
66057;DHT22;52842;52.666;5.202;2023-02-28T14:56:40;19.40;52.70
66057;DHT22;52842;52.666;5.202;2023-02-28T14:59:21;19.40;52.80
66057;DHT22;52842;52.666;5.202;2023-02-28T15:01:49;19.40;52.90
66057;DHT22;52842;52.666;5.202;2023-02-28T15:04:18;19.40;53.00
66057;DHT22;52842;52.666;5.202;2023-02-28T15:06:54;19.40;52.90
66057;DHT22;52842;52.666;5.202;2023-02-28T15:09:34;19.40;53.00
66057;DHT22;52842;52.666;5.202;2023-02-28T15:12:01;19.50;52.90
66057;DHT22;52842;52.666;5.202;2023-02-28T15:14:28;19.50;52.90
66057;DHT22;52842;52.666;5.202;2023-02-28T15:16:55;19.50;52.90
66057;DHT22;52842;52.666;5.202;2023-02-28T15:19:23;19.50;52.90
66057;DHT22;52842;52.666;5.202;2023-02-28T15:21:51;19.50;52.90
66057;DHT22;52842;52.666;5.202;2023-02-28T15:24:20;19.50;52.80
66057;DHT22;52842;52.666;5.202;2023-02-28T15:26:52;19.50;52.80
66057;DHT22;52842;52.666;5.202;2023-02-28T15:29:20;19.50;52.80
66057;DHT22;52842;52.666;5.202;2023-02-28T15:31:49;19.50;52.80
66057;DHT22;52842;52.666;5.202;2023-02-28T15:34:18;19.50;52.70
66057;DHT22;52842;52.666;5.202;2023-02-28T15:36:45;19.60;52.80
66057;DHT22;52842;52.666;5.202;2023-02-28T15:39:19;19.60;52.70
66057;DHT22;52842;52.666;5.202;2023-02-28T15:41:46;19.60;52.70
66057;DHT22;52842;52.666;5.202;2023-02-28T15:44:15;19.60;52.70
66057;DHT22;52842;52.666;5.202;2023-02-28T15:46:43;19.60;52.70
66057;DHT22;52842;52.666;5.202;2023-02-28T15:49:12;19.60;52.70
66057;DHT22;52842;52.666;5.202;2023-02-28T15:51:43;19.60;52.70
66057;DHT22;52842;52.666;5.202;2023-02-28T15:54:11;19.60;52.60
66057;DHT22;52842;52.666;5.202;2023-02-28T15:56:43;19.60;52.60
66057;DHT22;52842;52.666;5.202;2023-02-28T15:59:14;19.60;52.60
66057;DHT22;52842;52.666;5.202;2023-02-28T16:01:43;19.60;52.60
66057;DHT22;52842;52.666;5.202;2023-02-28T16:04:13;19.60;52.60
66057;DHT22;52842;52.666;5.202;2023-02-28T16:06:40;19.70;52.50